Time;durP1;ratioP1;P1;durP2;ratioP2;P2;SDS_P1;SDS_P2;PMS_P1;PMS_P2;Temp;Humidity;BMP_temperature;BMP_pressure;BME280_temperature;BME280_humidity;BME280_pressure;Samples;Min_cycle;Max_cycle;Signal;HPM_P1;HPM_P2
2021/12/26 00:00:23;;;;;;;9.05;4.45;;;-6.00;99.90;;;;;;5109342;28;20036;-67
2021/12/26 00:02:49;;;;;;;11.48;3.85;;;-6.00;99.90;;;;;;5093959;28;20071;-67
2021/12/26 00:05:16;;;;;;;9.07;3.97;;;-6.00;99.90;;;;;;5092892;28;20067;-67
2021/12/26 00:07:41;;;;;;;7.18;3.97;;;-6.00;99.90;;;;;;5088996;28;20051;-66
2021/12/26 00:10:10;;;;;;;7.88;3.47;;;-6.00;99.90;;;;;;5091548;28;20482;-69
2021/12/26 00:12:36;;;;;;;4.47;2.50;;;-6.00;99.90;;;;;;5092739;28;20050;-67
2021/12/26 00:15:03;;;;;;;4.53;2.55;;;-6.00;99.90;;;;;;5092279;28;20043;-67
2021/12/26 00:17:28;;;;;;;6.18;2.55;;;-6.00;99.90;;;;;;5092210;28;20490;-67
2021/12/26 00:19:54;;;;;;;5.90;2.80;;;-6.00;99.90;;;;;;5092323;28;20047;-66
2021/12/26 00:22:19;;;;;;;3.83;1.90;;;-6.00;99.90;;;;;;5093181;28;20060;-67
2021/12/26 00:24:46;;;;;;;3.85;2.10;;;-6.00;99.90;;;;;;5092932;28;20537;-67
2021/12/26 00:27:13;;;;;;;5.63;2.65;;;-6.00;99.90;;;;;;5089700;28;20044;-68
2021/12/26 00:29:38;;;;;;;5.05;3.03;;;-6.00;99.90;;;;;;5091905;28;20746;-67
2021/12/26 00:32:06;;;;;;;6.43;2.50;;;-6.00;99.90;;;;;;5092744;28;20131;-66
2021/12/26 00:34:32;;;;;;;6.88;3.35;;;-6.00;99.90;;;;;;5091426;28;20063;-68
2021/12/26 00:36:57;;;;;;;8.80;2.80;;;-6.00;99.90;;;;;;5091407;28;20040;-67
2021/12/26 00:39:23;;;;;;;5.15;2.75;;;-6.00;99.90;;;;;;5092085;28;20129;-69
2021/12/26 00:41:49;;;;;;;6.63;3.00;;;-6.10;99.90;;;;;;5093701;28;20039;-67
2021/12/26 00:44:14;;;;;;;8.18;3.08;;;-6.10;99.90;;;;;;5093411;28;20119;-67
2021/12/26 00:46:40;;;;;;;5.70;2.97;;;-6.10;99.90;;;;;;5093368;28;20042;-68
2021/12/26 00:49:06;;;;;;;8.13;2.67;;;-6.10;99.90;;;;;;5090828;28;20086;-67
2021/12/26 00:51:32;;;;;;;7.10;2.50;;;-6.10;99.90;;;;;;5091830;28;20036;-67
2021/12/26 00:53:58;;;;;;;5.68;2.13;;;-6.10;99.90;;;;;;5075155;28;20036;-67
2021/12/26 00:56:23;;;;;;;7.00;3.00;;;-6.20;99.90;;;;;;5090896;28;20051;-68
2021/12/26 00:58:50;;;;;;;7.50;2.80;;;-6.20;99.90;;;;;;5086003;28;20254;-67
2021/12/26 01:01:15;;;;;;;2.53;1.80;;;-6.20;99.90;;;;;;5074161;28;20028;-68
2021/12/26 01:03:42;;;;;;;5.75;2.00;;;-6.20;99.90;;;;;;5091700;28;20047;-67
2021/12/26 01:06:09;;;;;;;3.53;1.92;;;-6.20;99.90;;;;;;5091484;28;20077;-66
2021/12/26 01:08:39;;;;;;;7.40;2.03;;;-6.10;99.90;;;;;;5091195;28;20156;-69
2021/12/26 01:11:21;;;;;;;3.25;1.80;;;-6.10;99.90;;;;;;5087267;28;20431;-68
2021/12/26 01:13:49;;;;;;;3.80;1.45;;;-6.00;99.90;;;;;;5090081;28;20082;-67
2021/12/26 01:16:16;;;;;;;4.88;2.00;;;-6.10;99.90;;;;;;5088259;28;20036;-67
2021/12/26 01:18:50;;;;;;;4.07;1.80;;;-6.00;99.90;;;;;;5068009;28;20063;-67
2021/12/26 01:21:21;;;;;;;3.35;1.90;;;-6.10;99.90;;;;;;5093218;28;20024;-70
2021/12/26 01:23:50;;;;;;;3.20;1.85;;;-6.10;99.90;;;;;;5090633;28;20418;-69
2021/12/26 01:26:17;;;;;;;3.55;1.70;;;-6.10;99.90;;;;;;5086371;28;20036;-68
2021/12/26 01:28:43;;;;;;;4.55;2.00;;;-6.20;99.90;;;;;;5086206;28;20043;-69
2021/12/26 01:31:09;;;;;;;5.18;1.80;;;-6.20;99.90;;;;;;5087792;28;20032;-69
2021/12/26 01:33:35;;;;;;;5.15;1.88;;;-6.30;99.90;;;;;;5091828;28;20036;-69
2021/12/26 01:36:04;;;;;;;3.58;1.80;;;-6.30;99.90;;;;;;5089539;28;20313;-68
2021/12/26 01:38:29;;;;;;;2.17;1.05;;;-6.30;99.90;;;;;;5089926;28;20067;-68
2021/12/26 01:40:57;;;;;;;4.80;1.70;;;-6.30;99.90;;;;;;5089296;28;20517;-68
2021/12/26 01:43:26;;;;;;;2.53;1.52;;;-6.30;99.90;;;;;;5087633;28;20619;-67
2021/12/26 01:45:53;;;;;;;3.80;1.60;;;-6.30;99.90;;;;;;5089977;28;20043;-67
2021/12/26 01:48:20;;;;;;;2.45;1.33;;;-6.20;99.90;;;;;;5089649;28;20039;-68
2021/12/26 01:50:48;;;;;;;3.80;1.70;;;-6.20;99.90;;;;;;5085589;28;20091;-69
2021/12/26 01:53:14;;;;;;;3.92;1.60;;;-6.20;99.90;;;;;;5113098;27;20033;-70
2021/12/26 01:58:11;;;;;;;3.75;1.77;;;-6.30;99.90;;;;;;5085672;28;20245;-69
2021/12/26 02:00:38;;;;;;;3.90;1.80;;;-6.30;99.90;;;;;;5089857;28;20032;-69
2021/12/26 02:03:04;;;;;;;4.85;1.80;;;-6.40;99.90;;;;;;5090646;28;20040;-69
2021/12/26 02:05:30;;;;;;;6.35;1.75;;;-6.40;99.90;;;;;;5089490;28;20115;-69
2021/12/26 02:07:55;;;;;;;2.70;1.48;;;-6.40;99.90;;;;;;5089076;28;20119;-70
2021/12/26 02:10:21;;;;;;;4.30;1.60;;;-6.40;99.90;;;;;;5089111;28;20119;-69
2021/12/26 02:12:46;;;;;;;3.45;1.50;;;-6.40;99.90;;;;;;5088745;28;20640;-67
2021/12/26 02:15:12;;;;;;;3.72;1.70;;;-6.40;99.90;;;;;;5090480;28;20035;-70
2021/12/26 02:17:38;;;;;;;5.57;1.80;;;-6.30;99.90;;;;;;5080047;28;20491;-68
2021/12/26 02:21:09;;;;;;;3.50;1.60;;;-6.30;99.90;;;;;;5085240;28;20505;-70
2021/12/26 02:23:28;;;;;;;2.55;1.48;;;-6.30;99.90;;;;;;5092696;28;20064;-69
2021/12/26 02:28:23;;;;;;;3.13;1.80;;;-6.20;99.90;;;;;;5089344;28;20054;-70
2021/12/26 02:30:49;;;;;;;3.10;1.60;;;-6.10;99.90;;;;;;5089039;28;20072;-70
2021/12/26 02:33:16;;;;;;;2.90;1.70;;;-6.10;99.90;;;;;;5098218;28;20036;-69
2021/12/26 02:35:42;;;;;;;2.45;1.45;;;-6.10;99.90;;;;;;5089492;28;20040;-69
2021/12/26 02:38:09;;;;;;;2.47;1.40;;;-6.10;99.90;;;;;;5089393;28;20040;-68
2021/12/26 02:40:34;;;;;;;3.28;1.50;;;-6.00;99.90;;;;;;5078617;28;20398;-69
2021/12/26 02:43:00;;;;;;;5.78;2.10;;;-6.00;99.90;;;;;;5087286;28;20035;-70
2021/12/26 02:45:26;;;;;;;3.40;1.77;;;-6.00;99.90;;;;;;5091888;28;20461;-70
2021/12/26 02:47:52;;;;;;;4.38;1.70;;;-6.00;99.90;;;;;;5089352;28;20123;-69
2021/12/26 02:50:21;;;;;;;3.58;1.80;;;-6.00;99.90;;;;;;5092260;28;20497;-70
2021/12/26 02:52:47;;;;;;;3.03;1.83;;;-6.00;99.90;;;;;;5083808;28;20044;-70
2021/12/26 02:55:14;;;;;;;3.75;2.05;;;-6.00;99.90;;;;;;5088765;28;20043;-70
2021/12/26 02:57:40;;;;;;;3.92;1.92;;;-6.00;99.90;;;;;;5077762;28;20047;-69
2021/12/26 03:00:12;;;;;;;3.63;2.00;;;-6.00;99.90;;;;;;5080718;28;20043;-69
2021/12/26 03:02:43;;;;;;;5.85;2.05;;;-6.00;99.90;;;;;;5076447;28;20036;-69
2021/12/26 03:05:10;;;;;;;3.83;1.83;;;-6.00;99.90;;;;;;5083223;28;20040;-70
2021/12/26 03:07:35;;;;;;;4.18;1.80;;;-6.00;99.90;;;;;;5075292;28;20059;-71
2021/12/26 03:10:01;;;;;;;4.38;2.13;;;-6.00;99.90;;;;;;5085111;28;20044;-71
2021/12/26 03:12:30;;;;;;;2.78;1.70;;;-6.00;99.90;;;;;;5089263;28;20032;-69
2021/12/26 03:14:56;;;;;;;2.50;1.58;;;-5.90;99.90;;;;;;5084996;28;20040;-68
2021/12/26 03:17:22;;;;;;;4.00;1.55;;;-5.90;99.90;;;;;;5090569;28;20036;-70
2021/12/26 03:19:47;;;;;;;3.22;1.80;;;-5.80;99.90;;;;;;5091866;28;20123;-69
2021/12/26 03:22:15;;;;;;;4.45;1.80;;;-5.80;99.90;;;;;;5096228;28;20066;-70
2021/12/26 03:24:43;;;;;;;4.68;2.13;;;-5.80;99.90;;;;;;5082120;28;20123;-70
2021/12/26 03:27:09;;;;;;;5.88;1.95;;;-5.70;99.90;;;;;;5096751;28;20039;-68
2021/12/26 03:29:36;;;;;;;3.75;2.00;;;-5.70;99.90;;;;;;5087550;28;20428;-69
2021/12/26 03:32:03;;;;;;;2.22;1.58;;;-5.70;99.90;;;;;;5088114;28;20036;-70
2021/12/26 03:34:28;;;;;;;5.25;2.10;;;-5.70;99.90;;;;;;5087945;28;20422;-69
2021/12/26 03:36:56;;;;;;;3.60;1.85;;;-5.70;99.90;;;;;;5088833;28;20044;-70
2021/12/26 03:39:22;;;;;;;4.38;2.58;;;-5.70;99.90;;;;;;5079450;28;20089;-70
2021/12/26 03:41:50;;;;;;;3.38;1.67;;;-5.80;99.90;;;;;;5088693;28;20043;-69
2021/12/26 03:44:16;;;;;;;3.30;1.80;;;-5.70;99.90;;;;;;5100506;28;20040;-70
2021/12/26 03:46:41;;;;;;;3.65;2.05;;;-5.80;99.90;;;;;;5087023;28;20134;-70
2021/12/26 03:49:07;;;;;;;5.97;2.55;;;-5.80;99.90;;;;;;5086830;28;20438;-69
2021/12/26 03:51:33;;;;;;;5.82;1.60;;;-5.80;99.90;;;;;;5087508;28;20040;-70
2021/12/26 03:54:00;;;;;;;2.40;1.50;;;-5.80;99.90;;;;;;5092606;28;20360;-67
2021/12/26 03:56:27;;;;;;;3.85;1.67;;;-5.80;99.90;;;;;;5082457;28;20042;-69
2021/12/26 03:58:52;;;;;;;4.07;1.80;;;-5.80;99.90;;;;;;5079252;28;20045;-70
2021/12/26 04:01:18;;;;;;;5.30;2.10;;;-5.70;99.90;;;;;;5080278;28;20033;-69
2021/12/26 04:03:43;;;;;;;3.78;1.73;;;-5.70;99.90;;;;;;5088207;28;20044;-71
2021/12/26 04:06:09;;;;;;;6.32;2.00;;;-5.80;99.90;;;;;;5087307;28;20375;-70
2021/12/26 04:08:35;;;;;;;2.97;1.92;;;-5.80;99.90;;;;;;5070113;28;20078;-70
2021/12/26 04:11:00;;;;;;;4.82;2.10;;;-5.80;99.90;;;;;;5087926;28;20081;-67
2021/12/26 04:13:26;;;;;;;5.38;2.60;;;-5.80;99.90;;;;;;5069480;28;20371;-70
2021/12/26 04:15:51;;;;;;;4.40;2.25;;;-5.90;99.90;;;;;;5087462;28;20413;-70
2021/12/26 04:18:17;;;;;;;6.20;2.25;;;-5.90;99.90;;;;;;5088414;28;20123;-69
2021/12/26 04:20:42;;;;;;;4.68;2.28;;;-5.90;99.90;;;;;;5087640;28;20074;-70
2021/12/26 04:23:08;;;;;;;3.72;2.08;;;-5.90;99.90;;;;;;5087070;28;20040;-71
2021/12/26 04:25:34;;;;;;;3.22;2.10;;;-5.90;99.90;;;;;;5087765;28;20032;-69
2021/12/26 04:27:59;;;;;;;5.22;2.35;;;-5.90;99.90;;;;;;5088309;28;20059;-71
2021/12/26 04:30:26;;;;;;;5.32;2.70;;;-6.00;99.90;;;;;;5089297;28;20039;-70
2021/12/26 04:32:52;;;;;;;5.43;2.65;;;-5.90;99.90;;;;;;5093775;28;20078;-70
2021/12/26 04:35:18;;;;;;;3.35;2.10;;;-5.90;99.90;;;;;;5096131;28;20047;-71
2021/12/26 04:37:44;;;;;;;5.53;2.40;;;-6.00;99.90;;;;;;5092397;28;20044;-69
2021/12/26 04:40:13;;;;;;;5.22;2.30;;;-6.00;99.90;;;;;;5091762;28;20062;-70
2021/12/26 04:42:40;;;;;;;5.57;2.50;;;-6.00;99.90;;;;;;5092338;28;20090;-68
2021/12/26 04:45:08;;;;;;;4.47;2.50;;;-6.00;99.90;;;;;;5090924;28;20048;-70
2021/12/26 04:47:35;;;;;;;6.05;2.80;;;-6.00;99.90;;;;;;5104385;28;20043;-69
2021/12/26 04:50:01;;;;;;;3.63;2.50;;;-6.00;99.90;;;;;;5092657;28;20118;-70
2021/12/26 04:52:26;;;;;;;3.85;2.55;;;-6.10;99.90;;;;;;5092377;28;20119;-69
2021/12/26 04:54:52;;;;;;;8.38;3.20;;;-6.10;99.90;;;;;;5092999;28;20032;-70
2021/12/26 04:57:18;;;;;;;3.85;2.17;;;-6.10;99.90;;;;;;5091790;28;20452;-70
2021/12/26 04:59:44;;;;;;;5.85;2.70;;;-6.10;99.90;;;;;;5075456;28;20131;-70
2021/12/26 05:02:11;;;;;;;6.28;3.00;;;-6.10;99.90;;;;;;5072907;28;20038;-70
2021/12/26 05:04:36;;;;;;;5.88;2.67;;;-6.10;99.90;;;;;;5093244;28;20050;-69
2021/12/26 05:07:03;;;;;;;4.10;2.38;;;-6.10;99.90;;;;;;5091888;28;20040;-70
2021/12/26 05:09:29;;;;;;;5.60;2.30;;;-6.10;99.90;;;;;;5090742;28;20485;-70
2021/12/26 05:11:57;;;;;;;5.38;2.60;;;-6.10;99.90;;;;;;5089408;28;20366;-70
2021/12/26 05:14:24;;;;;;;5.28;2.65;;;-6.10;99.90;;;;;;5088449;28;20098;-69
2021/12/26 05:16:49;;;;;;;6.40;2.53;;;-6.10;99.90;;;;;;5096763;28;20044;-70
2021/12/26 05:19:15;;;;;;;6.88;2.90;;;-6.10;99.90;;;;;;5093484;28;20547;-70
2021/12/26 05:21:40;;;;;;;5.88;2.80;;;-6.10;99.90;;;;;;5093919;28;20065;-71
2021/12/26 05:24:06;;;;;;;4.82;2.75;;;-6.10;99.90;;;;;;5086521;28;20109;-70
2021/12/26 05:26:31;;;;;;;8.60;3.15;;;-6.10;99.90;;;;;;5082005;28;20051;-70
2021/12/26 05:28:57;;;;;;;6.03;3.03;;;-6.10;99.90;;;;;;5104013;28;20126;-70
2021/12/26 05:31:22;;;;;;;5.90;2.85;;;-6.10;99.90;;;;;;5098845;28;20440;-71
2021/12/26 05:33:48;;;;;;;4.43;2.40;;;-6.10;99.90;;;;;;5097911;28;20047;-71
2021/12/26 05:36:14;;;;;;;7.63;3.35;;;-6.10;99.90;;;;;;5071497;28;20040;-71
2021/12/26 05:38:40;;;;;;;6.55;3.15;;;-6.10;99.90;;;;;;5088680;28;20080;-72
2021/12/26 05:41:05;;;;;;;6.53;2.80;;;-6.10;99.90;;;;;;5088775;28;20066;-71
2021/12/26 05:43:31;;;;;;;6.40;2.33;;;-6.00;99.90;;;;;;5089515;28;20059;-68
2021/12/26 05:45:57;;;;;;;3.85;2.30;;;-6.00;99.90;;;;;;5090357;28;20467;-72
2021/12/26 05:48:23;;;;;;;4.45;2.85;;;-5.90;99.90;;;;;;5089546;28;20097;-71
2021/12/26 05:50:48;;;;;;;4.07;2.28;;;-5.90;99.90;;;;;;5083683;28;20131;-70
2021/12/26 05:53:14;;;;;;;4.90;2.80;;;-5.90;99.90;;;;;;5091592;28;20036;-70
2021/12/26 05:55:39;;;;;;;5.32;2.33;;;-5.90;99.90;;;;;;5092168;28;20044;-71
2021/12/26 05:58:05;;;;;;;4.85;2.95;;;-5.90;99.90;;;;;;5087480;28;20032;-70
2021/12/26 06:00:30;;;;;;;5.60;3.08;;;-5.90;99.90;;;;;;5072467;28;20040;-70
2021/12/26 06:02:56;;;;;;;6.22;2.58;;;-5.90;99.90;;;;;;5088793;28;20028;-71
2021/12/26 06:05:21;;;;;;;7.65;3.33;;;-5.90;99.90;;;;;;5089161;28;20066;-72
2021/12/26 06:07:49;;;;;;;6.13;3.00;;;-5.90;99.90;;;;;;5088357;28;20486;-71
2021/12/26 06:10:14;;;;;;;6.28;3.08;;;-5.90;99.90;;;;;;5089344;28;20132;-72
2021/12/26 06:12:40;;;;;;;4.68;2.90;;;-5.90;99.90;;;;;;5090875;28;20176;-71
2021/12/26 06:15:06;;;;;;;4.18;2.72;;;-5.90;99.90;;;;;;5097752;28;20047;-71
2021/12/26 06:17:32;;;;;;;4.72;2.92;;;-5.90;99.90;;;;;;5088445;28;20028;-70
2021/12/26 06:19:57;;;;;;;6.50;2.83;;;-5.90;99.90;;;;;;5080520;28;20121;-70
2021/12/26 06:22:23;;;;;;;8.20;3.03;;;-5.90;99.90;;;;;;5089755;28;20067;-71
2021/12/26 06:24:48;;;;;;;5.28;3.10;;;-6.00;99.90;;;;;;5089333;28;20064;-71
2021/12/26 06:27:14;;;;;;;5.28;2.60;;;-6.00;99.90;;;;;;5088708;28;20043;-71
2021/12/26 06:29:39;;;;;;;6.45;3.00;;;-6.00;99.90;;;;;;5085382;28;20452;-71
2021/12/26 06:32:05;;;;;;;6.53;3.33;;;-6.00;99.90;;;;;;5086248;28;20703;-71
2021/12/26 06:34:32;;;;;;;6.07;2.83;;;-6.00;99.90;;;;;;5091017;28;20048;-70
2021/12/26 06:36:58;;;;;;;6.68;3.00;;;-6.00;99.90;;;;;;5091818;28;20036;-71
2021/12/26 06:39:23;;;;;;;8.68;3.45;;;-6.10;99.90;;;;;;5071133;28;20360;-70
2021/12/26 06:41:49;;;;;;;6.50;3.50;;;-6.10;99.90;;;;;;5092087;28;20082;-70
2021/12/26 06:44:14;;;;;;;7.90;3.10;;;-6.10;99.90;;;;;;5089595;28;20471;-69
2021/12/26 06:46:40;;;;;;;6.85;3.08;;;-6.10;99.90;;;;;;5092993;28;20040;-70
2021/12/26 06:49:06;;;;;;;5.45;3.20;;;-6.20;99.90;;;;;;5090193;28;20046;-70
2021/12/26 06:51:32;;;;;;;5.45;3.20;;;-6.10;99.90;;;;;;5080774;28;20028;-69
2021/12/26 06:53:58;;;;;;;5.97;3.45;;;-6.20;99.90;;;;;;5088834;28;20039;-70
2021/12/26 06:56:23;;;;;;;4.63;3.00;;;-6.10;99.90;;;;;;5091768;28;20048;-70
2021/12/26 06:58:49;;;;;;;7.07;3.10;;;-6.20;99.90;;;;;;5087617;28;20440;-70
2021/12/26 07:01:15;;;;;;;7.70;3.53;;;-6.20;99.90;;;;;;5068567;28;20036;-70
2021/12/26 07:03:40;;;;;;;6.35;3.10;;;-6.20;99.90;;;;;;5090176;28;20094;-69
2021/12/26 07:06:06;;;;;;;6.57;3.10;;;-6.20;99.90;;;;;;5090101;28;20044;-70
2021/12/26 07:08:32;;;;;;;7.20;3.42;;;-6.30;99.90;;;;;;5090648;28;20089;-70
2021/12/26 07:10:58;;;;;;;6.28;3.45;;;-6.30;99.90;;;;;;5090392;28;20090;-70
2021/12/26 07:13:23;;;;;;;5.28;3.42;;;-6.30;99.90;;;;;;5089853;28;20141;-70
2021/12/26 07:15:49;;;;;;;4.72;3.15;;;-6.20;99.90;;;;;;5090917;28;20035;-71
2021/12/26 07:18:15;;;;;;;7.25;3.60;;;-6.20;99.90;;;;;;5080709;28;20029;-70
2021/12/26 07:20:40;;;;;;;4.80;3.15;;;-6.20;99.90;;;;;;5092838;28;20490;-70
2021/12/26 07:23:07;;;;;;;6.22;3.00;;;-6.20;99.90;;;;;;5093215;28;20431;-70
2021/12/26 07:25:33;;;;;;;6.78;3.13;;;-6.20;99.90;;;;;;5092542;28;20032;-70
2021/12/26 07:27:59;;;;;;;5.40;2.97;;;-6.20;99.90;;;;;;5085667;28;20126;-70
2021/12/26 07:30:24;;;;;;;7.60;3.10;;;-6.10;99.90;;;;;;5091201;28;20071;-71
2021/12/26 07:32:50;;;;;;;7.78;3.72;;;-6.10;99.90;;;;;;5085647;28;20511;-70
2021/12/26 07:35:16;;;;;;;7.07;3.47;;;-6.10;99.90;;;;;;5088510;28;20490;-71
2021/12/26 07:37:41;;;;;;;6.85;3.53;;;-6.00;99.90;;;;;;5089445;28;20036;-69
2021/12/26 07:40:09;;;;;;;7.20;3.45;;;-6.00;99.90;;;;;;5087477;28;20036;-69
2021/12/26 07:42:35;;;;;;;6.47;3.63;;;-6.00;99.90;;;;;;5078770;28;20043;-71
2021/12/26 07:45:00;;;;;;;6.70;3.30;;;-6.00;99.90;;;;;;5082454;28;20032;-70
2021/12/26 07:47:26;;;;;;;20.23;4.00;;;-5.90;99.90;;;;;;5087531;28;20040;-70
2021/12/26 07:49:51;;;;;;;6.03;3.20;;;-5.90;99.90;;;;;;5089622;28;20470;-69
2021/12/26 07:52:46;;;;;;;8.05;3.45;;;-5.90;99.90;;;;;;5090112;28;20036;-69
2021/12/26 07:55:13;;;;;;;7.82;3.75;;;-5.80;99.90;;;;;;5089949;28;20044;-68
2021/12/26 07:57:44;;;;;;;8.25;4.05;;;-5.80;99.90;;;;;;5094646;28;21434;-71
2021/12/26 08:00:10;;;;;;;7.47;3.50;;;-5.80;99.90;;;;;;5081006;28;20042;-69
2021/12/26 08:02:37;;;;;;;5.45;3.00;;;-5.70;99.90;;;;;;5087021;28;20478;-69
2021/12/26 08:05:02;;;;;;;7.50;3.55;;;-5.70;99.90;;;;;;5069113;28;20064;-68
2021/12/26 08:07:28;;;;;;;7.75;4.15;;;-5.70;99.90;;;;;;5098676;28;20067;-69
2021/12/26 08:09:53;;;;;;;8.75;3.58;;;-5.60;99.90;;;;;;5088186;28;20050;-69
2021/12/26 08:12:19;;;;;;;5.82;3.45;;;-5.70;99.90;;;;;;5089821;28;20432;-69
2021/12/26 08:14:44;;;;;;;7.28;3.80;;;-5.60;99.90;;;;;;5086580;28;20044;-70
2021/12/26 08:17:10;;;;;;;8.57;4.30;;;-5.60;99.90;;;;;;5085404;28;20119;-69
2021/12/26 08:19:36;;;;;;;7.60;3.47;;;-5.60;99.90;;;;;;5094399;28;20126;-69
2021/12/26 08:22:01;;;;;;;9.38;3.92;;;-5.60;99.90;;;;;;5093577;28;20442;-69
2021/12/26 08:24:27;;;;;;;7.93;4.45;;;-5.50;99.90;;;;;;5085765;28;20082;-70
2021/12/26 08:26:53;;;;;;;8.98;4.22;;;-5.50;99.90;;;;;;5091817;28;20045;-69
2021/12/26 08:29:21;;;;;;;6.38;4.18;;;-5.60;99.90;;;;;;5093627;28;20071;-69
2021/12/26 08:31:49;;;;;;;9.30;4.13;;;-5.50;99.90;;;;;;5093693;28;20490;-69
2021/12/26 08:34:19;;;;;;;8.93;3.97;;;-5.50;99.90;;;;;;5089931;28;20395;-69
2021/12/26 08:36:48;;;;;;;8.90;4.35;;;-5.50;99.90;;;;;;5100166;28;20115;-69
2021/12/26 08:39:13;;;;;;;9.82;4.20;;;-5.50;99.90;;;;;;5076419;28;20124;-68
2021/12/26 08:45:20;;;;;;;9.93;4.10;;;-5.40;99.90;;;;;;5091972;28;20549;-68
2021/12/26 08:47:46;;;;;;;10.95;4.65;;;-5.30;99.90;;;;;;5096578;28;20072;-69
2021/12/26 08:50:13;;;;;;;9.18;4.90;;;-5.30;99.90;;;;;;5092328;28;20169;-68
2021/12/26 08:52:39;;;;;;;7.18;3.80;;;-5.30;99.90;;;;;;5091923;28;20047;-68
2021/12/26 08:55:06;;;;;;;10.95;4.28;;;-5.20;99.90;;;;;;5093649;28;20032;-69
2021/12/26 08:57:32;;;;;;;6.20;3.45;;;-5.20;99.90;;;;;;5093845;28;20040;-69
2021/12/26 08:59:58;;;;;;;8.85;4.20;;;-5.10;99.90;;;;;;5091304;28;20430;-68
2021/12/26 09:02:24;;;;;;;8.50;4.40;;;-5.00;99.90;;;;;;5088821;28;20029;-68
2021/12/26 09:04:50;;;;;;;8.50;4.60;;;-5.00;99.90;;;;;;5091790;28;20044;-69
2021/12/26 09:07:15;;;;;;;7.32;4.32;;;-4.90;99.90;;;;;;5093967;28;20035;-68
2021/12/26 09:09:42;;;;;;;7.65;4.20;;;-4.90;99.90;;;;;;5094469;28;20043;-68
2021/12/26 09:12:08;;;;;;;10.52;4.80;;;-4.90;99.90;;;;;;5094095;28;20494;-67
2021/12/26 09:14:34;;;;;;;9.25;4.63;;;-4.80;99.90;;;;;;5087263;28;20028;-68
2021/12/26 09:17:02;;;;;;;9.38;4.05;;;-4.80;99.90;;;;;;5071898;28;20036;-70
2021/12/26 09:23:08;;;;;;;11.23;4.43;;;-4.80;99.90;;;;;;5090921;28;20031;-68
2021/12/26 09:25:33;;;;;;;7.38;4.57;;;-4.80;99.90;;;;;;5093519;28;20040;-68
2021/12/26 09:27:59;;;;;;;7.15;4.43;;;-4.80;99.90;;;;;;5092001;28;20059;-68
2021/12/26 09:30:25;;;;;;;7.85;4.78;;;-4.80;99.90;;;;;;5076962;28;20094;-68
2021/12/26 09:33:45;;;;;;;8.48;4.78;;;-4.80;99.90;;;;;;5093762;28;20047;-68
2021/12/26 09:36:11;;;;;;;11.80;4.43;;;-4.80;99.90;;;;;;5092827;28;20072;-67
2021/12/26 09:38:36;;;;;;;11.00;5.15;;;-4.80;99.90;;;;;;5092378;28;20059;-66
2021/12/26 09:41:02;;;;;;;8.82;4.55;;;-4.70;99.90;;;;;;5087458;28;20489;-68
2021/12/26 09:43:28;;;;;;;9.02;4.93;;;-4.60;99.90;;;;;;5094484;28;20042;-68
2021/12/26 09:45:53;;;;;;;10.18;5.80;;;-4.50;99.90;;;;;;5093775;28;20390;-69
2021/12/26 09:48:19;;;;;;;9.63;5.03;;;-4.30;99.90;;;;;;5078654;28;20060;-67
2021/12/26 09:50:46;;;;;;;8.73;4.93;;;-4.10;99.90;;;;;;5086485;28;20433;-67
2021/12/26 09:56:52;;;;;;;10.25;4.57;;;-3.70;99.90;;;;;;5074806;28;20097;-68
2021/12/26 09:59:21;;;;;;;8.85;4.85;;;-3.60;99.90;;;;;;5105172;28;20494;-68
2021/12/26 10:01:52;;;;;;;8.98;5.40;;;-3.50;99.90;;;;;;5093836;28;20455;-67
2021/12/26 10:08:06;;;;;;;8.75;4.95;;;-3.30;99.90;;;;;;5095191;28;20042;-67
2021/12/26 10:10:31;;;;;;;7.88;4.78;;;-3.10;99.90;;;;;;5093578;28;20032;-69
2021/12/26 10:12:57;;;;;;;10.90;4.85;;;-3.10;99.90;;;;;;5093577;28;20047;-69
2021/12/26 10:15:49;;;;;;;9.35;4.78;;;-2.90;99.90;;;;;;5093844;28;20471;-67
2021/12/26 10:18:28;;;;;;;8.88;5.15;;;-2.80;99.90;;;;;;5093032;28;20040;-68
2021/12/26 10:20:54;;;;;;;11.57;5.85;;;-2.80;99.90;;;;;;5105781;28;20036;-68
2021/12/26 10:23:28;;;;;;;8.55;4.88;;;-2.80;99.90;;;;;;5100981;28;20043;-67
2021/12/26 10:25:54;;;;;;;9.85;5.10;;;-2.70;99.90;;;;;;5093326;28;20397;-68
2021/12/26 10:28:19;;;;;;;11.25;5.50;;;-2.60;99.90;;;;;;5093553;28;20194;-69
2021/12/26 10:30:45;;;;;;;10.55;4.65;;;-2.50;99.90;;;;;;5093399;28;20395;-68
2021/12/26 10:36:27;;;;;;;11.48;5.10;;;-2.40;99.90;;;;;;5093081;28;20051;-67
2021/12/26 10:39:12;;;;;;;8.10;4.72;;;-2.40;99.90;;;;;;5093226;28;20089;-68
2021/12/26 10:42:06;;;;;;;9.68;4.88;;;-2.30;99.90;;;;;;5109225;28;20044;-66
2021/12/26 10:44:39;;;;;;;9.10;5.22;;;-2.40;99.90;;;;;;5109871;28;20044;-67
2021/12/26 10:47:20;;;;;;;8.15;4.50;;;-2.40;99.90;;;;;;5103856;28;20044;-68
2021/12/26 10:49:58;;;;;;;9.13;4.57;;;-2.40;99.90;;;;;;5092836;28;20043;-66
2021/12/26 10:52:30;;;;;;;9.38;4.70;;;-2.40;99.90;;;;;;5092543;28;20089;-66
2021/12/26 10:55:03;;;;;;;11.18;5.70;;;-2.40;99.90;;;;;;5092725;28;20118;-69
2021/12/26 10:57:35;;;;;;;9.25;5.10;;;-2.40;99.90;;;;;;5088475;28;20075;-65
2021/12/26 11:00:04;;;;;;;9.82;5.18;;;-2.50;99.90;;;;;;5060887;28;20032;-65
2021/12/26 11:02:31;;;;;;;7.40;4.40;;;-2.40;99.90;;;;;;5087840;28;20036;-66
2021/12/26 11:05:09;;;;;;;8.07;4.78;;;-2.40;99.90;;;;;;5083870;28;20036;-66
2021/12/26 11:11:22;;;;;;;9.60;5.18;;;-2.40;99.90;;;;;;5093343;28;20049;-65
2021/12/26 11:13:50;;;;;;;8.18;4.75;;;-2.40;99.90;;;;;;5084411;28;20044;-66
2021/12/26 11:16:16;;;;;;;10.27;5.10;;;-2.30;99.90;;;;;;5088596;28;20079;-65
2021/12/26 11:18:42;;;;;;;9.00;5.10;;;-2.30;99.90;;;;;;5055823;28;20043;-65
2021/12/26 11:21:13;;;;;;;12.05;5.35;;;-2.30;99.90;;;;;;5072225;28;20044;-65
2021/12/26 11:23:43;;;;;;;8.50;4.88;;;-2.30;99.90;;;;;;5072243;28;20036;-65
2021/12/26 11:26:13;;;;;;;10.98;5.50;;;-2.20;99.90;;;;;;5072089;28;20041;-65
2021/12/26 11:28:41;;;;;;;9.95;5.32;;;-2.20;99.90;;;;;;5071996;28;20040;-65
2021/12/26 11:31:11;;;;;;;9.43;4.95;;;-2.10;99.90;;;;;;5072248;28;20163;-65
2021/12/26 11:33:37;;;;;;;10.68;5.68;;;-2.10;99.90;;;;;;5072489;28;20032;-65
2021/12/26 11:36:06;;;;;;;10.43;6.00;;;-2.10;99.90;;;;;;5087695;28;20044;-65
2021/12/26 11:38:33;;;;;;;9.82;5.10;;;-2.00;99.90;;;;;;5092110;28;20081;-65
2021/12/26 11:41:01;;;;;;;8.95;5.20;;;-2.00;99.90;;;;;;5091955;28;20051;-66
2021/12/26 11:43:52;;;;;;;11.05;5.18;;;-2.00;99.90;;;;;;5092115;28;20043;-65
2021/12/26 11:46:30;;;;;;;9.57;5.63;;;-1.90;99.90;;;;;;5092276;28;20475;-66
2021/12/26 11:49:16;;;;;;;8.93;5.32;;;-1.90;99.90;;;;;;5073792;28;20048;-67
2021/12/26 11:52:06;;;;;;;10.07;5.50;;;-1.90;99.90;;;;;;5091473;28;20032;-64
2021/12/26 11:55:10;;;;;;;11.57;5.70;;;-1.80;99.90;;;;;;5091203;28;20036;-66
2021/12/26 11:57:54;;;;;;;;;;;-1.80;99.90;;;;;;5089629;28;20043;-65
2021/12/26 12:00:27;;;;;;;9.90;6.22;;;-1.70;99.90;;;;;;5105593;28;19990;-65
2021/12/26 12:02:55;;;;;;;10.65;5.72;;;-1.70;99.90;;;;;;5090657;28;20032;-65
2021/12/26 12:05:29;;;;;;;12.77;6.65;;;-1.70;99.90;;;;;;5094872;28;20040;-65
2021/12/26 12:08:01;;;;;;;9.50;5.55;;;-1.60;99.90;;;;;;5090306;28;20367;-66
2021/12/26 12:10:48;;;;;;;10.85;6.57;;;-1.60;99.90;;;;;;5095219;28;20039;-64
2021/12/26 12:13:22;;;;;;;12.52;5.43;;;-1.50;99.90;;;;;;5071081;28;20041;-64
2021/12/26 12:16:09;;;;;;;10.15;5.95;;;-1.50;99.90;;;;;;5079020;28;20113;-65
2021/12/26 12:18:44;;;;;;;11.15;5.45;;;-1.50;99.90;;;;;;5089311;28;20032;-66
2021/12/26 12:21:33;;;;;;;11.63;5.57;;;-1.50;99.90;;;;;;5086055;28;20036;-65
2021/12/26 12:24:12;;;;;;;12.57;6.05;;;-1.40;99.90;;;;;;5083393;28;20122;-65
2021/12/26 12:26:37;;;;;;;12.15;5.55;;;-1.40;99.90;;;;;;5096838;28;20477;-65
2021/12/26 12:29:03;;;;;;;10.20;5.93;;;-1.40;99.90;;;;;;5066925;28;20036;-65
2021/12/26 12:31:28;;;;;;;11.50;6.20;;;-1.40;99.90;;;;;;5089956;28;20986;-65
2021/12/26 12:34:03;;;;;;;13.15;5.72;;;-1.40;99.90;;;;;;5095866;28;20036;-66
2021/12/26 12:36:31;;;;;;;10.45;5.65;;;-1.30;99.90;;;;;;5089838;28;20139;-66
2021/12/26 12:39:20;;;;;;;11.43;6.53;;;-1.30;99.90;;;;;;5087648;28;20027;-67
2021/12/26 12:41:55;;;;;;;11.68;5.93;;;-1.30;99.90;;;;;;5083818;28;20043;-66
2021/12/26 12:44:35;;;;;;;11.90;6.38;;;-1.30;99.90;;;;;;5085233;28;20503;-67
2021/12/26 12:47:14;;;;;;;13.07;6.18;;;-1.30;99.90;;;;;;5092315;28;20040;-68
2021/12/26 12:50:01;;;;;;;11.80;6.65;;;-1.20;99.90;;;;;;5087110;28;20058;-65
2021/12/26 12:52:43;;;;;;;12.55;6.25;;;-1.20;99.90;;;;;;5098445;28;20036;-66
2021/12/26 12:55:13;;;;;;;12.52;6.30;;;-1.20;99.90;;;;;;5119538;27;20081;-67
2021/12/26 12:57:42;;;;;;;12.48;5.85;;;-1.10;99.90;;;;;;5088509;28;20041;-66
2021/12/26 13:00:51;;;;;;;13.32;6.07;;;-1.10;99.90;;;;;;5068552;28;20394;-66
2021/12/26 13:03:19;;;;;;;11.63;6.57;;;-1.10;99.90;;;;;;5082725;28;20455;-67
2021/12/26 13:05:46;;;;;;;11.43;5.60;;;-1.10;99.90;;;;;;5076744;28;20041;-66
2021/12/26 13:08:16;;;;;;;12.68;6.65;;;-1.10;99.90;;;;;;5092828;28;20047;-66
2021/12/26 13:10:42;;;;;;;11.05;6.00;;;-1.10;99.90;;;;;;5093789;28;20126;-67
2021/12/26 13:13:12;;;;;;;11.48;5.95;;;-1.00;99.90;;;;;;5093265;28;20047;-66
2021/12/26 13:16:10;;;;;;;12.77;6.80;;;-1.00;99.90;;;;;;5090762;28;20161;-67
2021/12/26 13:18:39;;;;;;;12.15;6.68;;;-1.00;99.90;;;;;;5037578;28;20052;-67